Time;durP1;ratioP1;P1;durP2;ratioP2;P2;SDS_P1;SDS_P2;PMS_P1;PMS_P2;Temp;Humidity;BMP_temperature;BMP_pressure;BME280_temperature;BME280_humidity;BME280_pressure;Samples;Min_cycle;Max_cycle;Signal;HPM_P1;HPM_P2
2021/07/12 00:00:39;;;;;;;1.20;0.32;;;21.50;39.70;;;;;;4331406;33;20086;-36
2021/07/12 00:03:06;;;;;;;0.47;0.30;;;21.50;39.90;;;;;;4331561;33;20081;-36
2021/07/12 00:05:33;;;;;;;0.75;0.40;;;21.40;39.90;;;;;;4331647;33;20215;-36
2021/07/12 00:08:00;;;;;;;1.75;0.82;;;21.30;40.20;;;;;;4319179;33;20143;-36
2021/07/12 00:10:28;;;;;;;0.45;0.40;;;21.30;40.40;;;;;;4331256;33;20171;-36
2021/07/12 00:12:55;;;;;;;0.50;0.40;;;21.30;40.60;;;;;;4331562;33;20065;-37
2021/07/12 00:15:22;;;;;;;0.93;0.40;;;21.30;40.50;;;;;;4345144;33;20155;-37
2021/07/12 00:17:49;;;;;;;0.30;0.28;;;21.20;40.70;;;;;;4331308;33;20074;-37
2021/07/12 00:20:16;;;;;;;0.20;0.20;;;21.10;40.80;;;;;;4331107;33;20144;-36
2021/07/12 00:22:43;;;;;;;1.05;0.30;;;21.10;40.90;;;;;;4330733;33;20066;-37
2021/07/12 00:25:10;;;;;;;1.40;0.13;;;21.10;41.00;;;;;;4318705;33;20585;-36
2021/07/12 00:27:37;;;;;;;0.47;0.30;;;21.10;41.00;;;;;;4345121;33;20163;-35
2021/07/12 00:30:06;;;;;;;0.93;0.20;;;21.00;41.20;;;;;;4331300;33;20094;-36
2021/07/12 00:32:33;;;;;;;0.57;0.40;;;21.00;41.30;;;;;;4345042;33;20075;-35
2021/07/12 00:34:59;;;;;;;0.62;0.40;;;21.00;41.30;;;;;;4344822;33;20093;-36
2021/07/12 00:37:25;;;;;;;0.50;0.20;;;21.00;41.40;;;;;;4344493;33;20696;-36
2021/07/12 00:39:52;;;;;;;1.48;1.30;;;21.00;41.40;;;;;;4330917;33;20090;-37
2021/07/12 00:42:18;;;;;;;0.30;0.20;;;21.00;41.50;;;;;;4312476;33;20460;-36
2021/07/12 00:44:45;;;;;;;0.30;0.20;;;21.00;41.50;;;;;;4312371;33;20196;-36
2021/07/12 00:47:11;;;;;;;0.68;0.45;;;21.00;41.70;;;;;;4313083;33;20139;-36
2021/07/12 00:49:37;;;;;;;0.50;0.30;;;20.90;41.80;;;;;;4300418;33;20170;-34
2021/07/12 00:52:04;;;;;;;0.95;0.35;;;20.90;41.90;;;;;;4313293;33;20078;-36
2021/07/12 00:54:31;;;;;;;0.85;0.45;;;20.90;42.00;;;;;;4300582;33;20144;-36
2021/07/12 00:57:01;;;;;;;1.87;0.20;;;20.90;42.10;;;;;;4288630;33;20070;-36
2021/07/12 00:59:28;;;;;;;0.85;0.30;;;20.90;42.20;;;;;;4312467;33;20107;-36
2021/07/12 01:01:54;;;;;;;0.50;0.20;;;20.80;42.20;;;;;;4300490;33;20573;-36
2021/07/12 01:04:21;;;;;;;0.73;0.40;;;20.80;42.30;;;;;;4300365;33;20531;-36
2021/07/12 01:06:48;;;;;;;0.50;0.30;;;20.80;42.40;;;;;;4288057;33;20122;-36
2021/07/12 01:09:14;;;;;;;0.62;0.47;;;20.80;42.50;;;;;;4312572;33;20056;-37
2021/07/12 01:12:19;;;;;;;7.32;0.35;;;20.70;42.50;;;;;;4300026;33;20075;-37
2021/07/12 01:15:15;;;;;;;1.02;0.50;;;20.70;42.50;;;;;;4300211;33;20067;-36
2021/07/12 01:18:00;;;;;;;0.40;0.40;;;20.70;42.70;;;;;;4301637;33;20614;-37
2021/07/12 01:20:57;;;;;;;1.42;0.52;;;20.70;42.90;;;;;;4317176;33;20070;-37
2021/07/12 01:23:43;;;;;;;0.73;0.47;;;20.70;42.90;;;;;;4327086;33;20059;-37
2021/07/12 01:26:55;;;;;;;0.30;0.30;;;20.70;43.00;;;;;;4326937;33;20479;-36
2021/07/12 01:30:02;;;;;;;1.85;0.50;;;20.70;43.10;;;;;;4326552;33;20055;-36
2021/07/12 01:32:56;;;;;;;1.20;0.50;;;20.70;43.10;;;;;;4326718;33;20063;-37
2021/07/12 01:35:52;;;;;;;0.52;0.37;;;20.60;43.30;;;;;;4315885;33;20227;-37
2021/07/12 01:38:32;;;;;;;;;;;20.60;43.40;;;;;;4326685;33;20082;-38
2021/07/12 01:41:36;;;;;;;1.92;0.60;;;20.60;43.40;;;;;;4326287;33;20055;-37
2021/07/12 01:44:41;;;;;;;0.70;0.40;;;20.70;43.40;;;;;;4314117;33;20085;-37
2021/07/12 01:47:13;;;;;;;2.65;0.98;;;20.70;43.40;;;;;;4326428;33;20072;-35
2021/07/12 01:49:53;;;;;;;1.12;0.50;;;20.80;43.90;;;;;;4314891;33;20191;-36
2021/07/12 01:52:30;;;;;;;1.67;0.68;;;20.90;43.10;;;;;;4313932;33;20142;-38
2021/07/12 01:55:35;;;;;;;3.58;0.60;;;21.00;42.90;;;;;;4301942;33;20075;-37
2021/07/12 01:59:29;;;;;;;1.07;0.47;;;21.10;42.70;;;;;;4315856;33;20083;-35
2021/07/12 02:01:56;;;;;;;2.05;0.68;;;21.20;42.50;;;;;;4248074;33;20175;-38
2021/07/12 02:04:29;;;;;;;0.37;0.37;;;21.40;42.10;;;;;;4273569;33;20076;-37
2021/07/12 02:06:55;;;;;;;1.33;0.60;;;21.50;42.00;;;;;;4323573;33;20074;-37
2021/07/12 02:09:22;;;;;;;1.20;0.32;;;21.60;41.80;;;;;;4317507;33;20148;-36
2021/07/12 02:11:48;;;;;;;0.88;0.57;;;21.70;41.60;;;;;;4286908;33;20671;-35
2021/07/12 02:14:18;;;;;;;1.02;0.55;;;21.80;41.50;;;;;;4263521;33;20146;-37
2021/07/12 02:16:44;;;;;;;1.02;0.70;;;21.90;41.30;;;;;;4299125;33;20314;-37
2021/07/12 02:19:11;;;;;;;1.52;0.60;;;21.90;41.10;;;;;;4299470;33;20083;-37
2021/07/12 02:21:39;;;;;;;3.55;0.88;;;22.00;41.10;;;;;;4275514;33;20075;-37
2021/07/12 02:24:06;;;;;;;2.35;0.95;;;22.20;41.00;;;;;;4286963;33;20209;-37
2021/07/12 02:26:32;;;;;;;1.65;0.65;;;22.30;40.60;;;;;;4275105;33;20125;-37
2021/07/12 02:29:03;;;;;;;1.35;0.75;;;22.40;40.40;;;;;;4299017;33;20531;-37
2021/07/12 02:31:30;;;;;;;1.12;0.40;;;22.60;40.20;;;;;;4311316;33;20077;-37
2021/07/12 02:33:57;;;;;;;3.65;1.48;;;22.70;39.90;;;;;;4299214;33;20067;-37
2021/07/12 02:36:24;;;;;;;1.10;0.62;;;22.80;39.80;;;;;;4299269;33;20059;-37
2021/07/12 02:38:50;;;;;;;4.03;0.60;;;22.90;39.70;;;;;;4287234;33;20067;-37
2021/07/12 02:41:17;;;;;;;7.50;1.10;;;22.90;39.30;;;;;;4298819;33;20514;-37
2021/07/12 02:43:43;;;;;;;2.70;0.37;;;22.90;39.20;;;;;;4301246;33;20070;-37
2021/07/12 02:46:10;;;;;;;1.70;0.60;;;23.00;39.40;;;;;;4317469;33;20073;-37
2021/07/12 02:48:36;;;;;;;1.27;0.40;;;23.10;39.10;;;;;;4296113;33;20572;-37
2021/07/12 02:51:07;;;;;;;1.40;0.70;;;23.30;39.00;;;;;;4284780;33;20087;-37
2021/07/12 02:53:39;;;;;;;1.90;0.80;;;23.40;38.70;;;;;;4284590;33;20067;-37
2021/07/12 02:56:05;;;;;;;1.20;0.85;;;23.50;38.50;;;;;;4284768;33;20178;-35
2021/07/12 02:58:32;;;;;;;0.70;0.50;;;23.60;38.40;;;;;;4294457;33;20071;-36
2021/07/12 03:00:58;;;;;;;3.05;0.57;;;23.80;38.10;;;;;;4299041;33;20067;-37
2021/07/12 03:03:24;;;;;;;3.67;1.10;;;23.80;37.90;;;;;;4311022;33;20528;-37
2021/07/12 03:05:53;;;;;;;0.40;0.40;;;23.90;37.80;;;;;;4311046;33;20558;-37
2021/07/12 03:08:42;;;;;;;0.40;0.40;;;24.00;37.70;;;;;;4298699;33;20558;-38
2021/07/12 03:11:10;;;;;;;1.95;0.70;;;24.10;37.50;;;;;;4299568;33;20096;-38
2021/07/12 03:13:51;;;;;;;2.00;0.88;;;24.10;37.50;;;;;;4298551;33;20094;-38
2021/07/12 03:16:18;;;;;;;1.70;0.68;;;24.10;37.50;;;;;;4299426;33;20129;-37
2021/07/12 03:18:50;;;;;;;2.50;0.30;;;24.20;37.50;;;;;;4303700;33;20127;-37
2021/07/12 03:21:17;;;;;;;0.47;0.35;;;24.20;37.50;;;;;;4286923;33;20095;-36
2021/07/12 03:23:44;;;;;;;2.33;0.80;;;24.20;37.40;;;;;;4311068;33;20090;-38
2021/07/12 03:26:11;;;;;;;3.58;0.65;;;24.40;37.50;;;;;;4286544;33;20206;-37
2021/07/12 03:28:38;;;;;;;2.00;0.70;;;24.30;37.30;;;;;;4255605;33;20577;-38
2021/07/12 03:31:08;;;;;;;2.10;0.43;;;24.40;37.30;;;;;;4256052;33;20072;-38
2021/07/12 03:33:34;;;;;;;0.68;0.30;;;24.40;37.50;;;;;;4244102;33;20072;-37
2021/07/12 03:36:01;;;;;;;0.60;0.60;;;24.40;37.60;;;;;;4258057;33;20071;-37
2021/07/12 03:38:27;;;;;;;1.40;1.02;;;24.30;37.70;;;;;;4258015;33;20546;-39
2021/07/12 03:40:54;;;;;;;0.90;0.50;;;24.40;37.90;;;;;;4258312;33;20536;-37
2021/07/12 03:43:20;;;;;;;1.00;0.70;;;24.40;37.90;;;;;;4258032;33;20067;-38
2021/07/12 03:45:58;;;;;;;1.02;0.70;;;24.40;37.90;;;;;;4258502;33;20083;-38
2021/07/12 03:48:54;;;;;;;1.30;0.62;;;24.40;38.00;;;;;;4270106;33;20510;-37
2021/07/12 03:51:25;;;;;;;2.70;0.90;;;24.40;38.10;;;;;;4242888;33;20076;-37
2021/07/12 03:53:52;;;;;;;1.30;0.95;;;24.40;38.10;;;;;;4255291;33;20104;-38
2021/07/12 03:56:18;;;;;;;3.30;1.17;;;24.40;38.30;;;;;;4255420;33;20152;-35
2021/07/12 03:58:46;;;;;;;0.75;0.50;;;24.40;38.30;;;;;;4268668;33;20085;-38
2021/07/12 04:01:19;;;;;;;2.80;0.85;;;24.40;38.40;;;;;;4284264;33;20147;-37
2021/07/12 04:03:49;;;;;;;1.37;0.75;;;24.40;38.40;;;;;;4284116;33;20182;-37
2021/07/12 04:06:16;;;;;;;1.98;0.80;;;24.40;38.40;;;;;;4284165;33;20079;-37
2021/07/12 04:08:43;;;;;;;2.10;0.60;;;24.40;38.40;;;;;;4284221;33;20077;-37
2021/07/12 04:11:11;;;;;;;1.85;0.40;;;24.30;38.40;;;;;;4272300;33;20101;-38
2021/07/12 04:13:38;;;;;;;5.20;1.33;;;24.50;38.40;;;;;;4283990;33;20213;-38
2021/07/12 04:16:05;;;;;;;2.67;1.05;;;24.70;38.60;;;;;;4284104;33;20186;-37
2021/07/12 04:18:32;;;;;;;2.78;1.02;;;24.80;38.10;;;;;;4271974;33;20143;-38
2021/07/12 04:20:59;;;;;;;1.27;0.70;;;24.90;37.80;;;;;;4271937;33;20185;-37
2021/07/12 04:23:25;;;;;;;1.85;0.75;;;25.00;37.70;;;;;;4272071;33;20577;-37
2021/07/12 04:25:52;;;;;;;3.40;1.65;;;25.00;37.60;;;;;;4283862;33;20113;-37
2021/07/12 04:28:18;;;;;;;3.50;1.05;;;25.00;37.40;;;;;;4328233;33;20079;-37
2021/07/12 04:30:45;;;;;;;2.12;1.00;;;25.00;37.50;;;;;;4331014;33;20085;-37
2021/07/12 04:33:11;;;;;;;0.80;0.50;;;25.10;37.70;;;;;;4330949;33;20065;-37
2021/07/12 04:35:38;;;;;;;2.42;0.95;;;25.10;37.70;;;;;;4344286;33;20090;-37
2021/07/12 04:38:04;;;;;;;5.72;1.25;;;25.20;37.60;;;;;;4342656;33;20066;-37
2021/07/12 04:40:31;;;;;;;5.30;0.98;;;25.30;37.40;;;;;;4331161;33;20165;-38
2021/07/12 04:42:57;;;;;;;3.75;1.12;;;25.30;37.20;;;;;;4344308;33;20078;-38
2021/07/12 04:45:27;;;;;;;3.67;1.15;;;25.20;37.50;;;;;;4330469;33;20491;-37
2021/07/12 04:47:54;;;;;;;2.00;0.93;;;25.20;37.50;;;;;;4318549;33;20134;-37
2021/07/12 04:50:20;;;;;;;2.42;0.85;;;25.30;37.50;;;;;;4344557;33;20070;-38
2021/07/12 04:52:47;;;;;;;4.82;1.73;;;25.30;37.60;;;;;;4344537;33;20090;-37
2021/07/12 04:55:13;;;;;;;4.82;1.62;;;25.30;37.60;;;;;;4330640;33;20123;-38
2021/07/12 04:57:40;;;;;;;2.62;1.27;;;25.40;37.70;;;;;;4330369;33;20046;-37
2021/07/12 05:00:08;;;;;;;14.00;1.27;;;25.50;37.60;;;;;;4318407;33;20529;-37
2021/07/12 05:02:34;;;;;;;6.45;2.12;;;25.80;37.60;;;;;;4344272;33;20612;-37
2021/07/12 05:05:01;;;;;;;2.53;1.60;;;25.90;37.30;;;;;;4343935;33;20066;-37
2021/07/12 05:07:27;;;;;;;3.97;1.80;;;25.80;37.20;;;;;;4338644;33;20138;-39
2021/07/12 05:09:54;;;;;;;3.17;1.48;;;25.70;37.30;;;;;;4344040;32;20063;-38
2021/07/12 05:12:21;;;;;;;2.03;0.70;;;25.80;37.40;;;;;;4344446;32;20067;-38
2021/07/12 05:14:48;;;;;;;5.43;1.48;;;25.80;37.30;;;;;;4344081;32;20506;-39
2021/07/12 05:17:14;;;;;;;6.47;2.58;;;25.80;37.20;;;;;;4343832;32;20560;-38
2021/07/12 05:19:41;;;;;;;1.62;1.42;;;25.80;37.40;;;;;;4342487;33;20054;-38
2021/07/12 05:22:08;;;;;;;5.07;1.45;;;25.70;37.60;;;;;;4343824;32;20160;-38
2021/07/12 05:24:34;;;;;;;4.20;2.10;;;25.80;37.50;;;;;;4314369;33;20066;-37
2021/07/12 05:27:01;;;;;;;3.47;1.15;;;25.80;37.50;;;;;;4314733;33;20645;-38
2021/07/12 05:29:27;;;;;;;3.75;1.98;;;25.90;37.40;;;;;;4314129;33;20660;-37
2021/07/12 05:31:54;;;;;;;3.95;2.03;;;26.00;36.90;;;;;;4299495;33;20075;-35
2021/07/12 05:34:20;;;;;;;5.10;1.30;;;26.00;36.80;;;;;;4311751;33;20590;-37
2021/07/12 05:36:47;;;;;;;2.67;2.12;;;25.90;36.60;;;;;;4299839;33;20079;-38
2021/07/12 05:39:14;;;;;;;2.05;0.93;;;25.90;35.90;;;;;;4311824;33;20087;-38
2021/07/12 05:41:41;;;;;;;1.70;0.80;;;26.00;36.30;;;;;;4311694;33;20075;-37
2021/07/12 05:44:07;;;;;;;3.45;1.60;;;26.20;36.20;;;;;;4299626;33;20055;-36
2021/07/12 05:46:34;;;;;;;4.68;1.92;;;26.20;34.50;;;;;;4275748;33;20055;-38
2021/07/12 05:49:00;;;;;;;2.33;0.65;;;26.20;34.40;;;;;;4311440;33;20079;-38
2021/07/12 05:51:27;;;;;;;1.40;0.90;;;26.20;34.50;;;;;;4299305;33;20169;-37
2021/07/12 05:53:53;;;;;;;3.62;1.50;;;26.50;34.40;;;;;;4311892;33;20666;-38
2021/07/12 05:56:20;;;;;;;1.83;1.30;;;26.50;33.70;;;;;;4314126;33;20075;-38
2021/07/12 05:58:46;;;;;;;2.30;0.80;;;26.50;31.90;;;;;;4314228;33;20178;-45
2021/07/12 06:01:16;;;;;;;1.20;0.70;;;26.60;32.30;;;;;;4301538;33;20590;-38
2021/07/12 06:03:43;;;;;;;2.47;0.73;;;26.70;32.30;;;;;;4314377;33;20186;-39
2021/07/12 06:06:09;;;;;;;1.50;0.80;;;26.80;31.90;;;;;;4314154;33;20078;-38
2021/07/12 06:08:36;;;;;;;5.55;0.88;;;26.90;31.00;;;;;;4326284;33;20093;-38
2021/07/12 06:11:02;;;;;;;3.40;1.50;;;27.00;31.60;;;;;;4326307;33;20654;-38
2021/07/12 06:13:29;;;;;;;1.60;0.70;;;27.20;32.00;;;;;;4296708;33;20131;-37
2021/07/12 06:15:55;;;;;;;5.12;0.90;;;27.30;31.90;;;;;;4284928;33;20064;-38
2021/07/12 06:18:22;;;;;;;1.73;1.35;;;27.40;31.60;;;;;;4284980;33;20071;-38
2021/07/12 06:20:48;;;;;;;3.60;0.60;;;27.60;31.90;;;;;;4296729;33;20079;-38
2021/07/12 06:23:15;;;;;;;2.42;1.10;;;27.70;31.20;;;;;;4296497;33;20065;-36
2021/07/12 06:25:41;;;;;;;2.80;0.73;;;27.80;31.10;;;;;;4296834;33;20082;-36
2021/07/12 06:28:08;;;;;;;2.03;0.95;;;27.70;30.50;;;;;;4308999;33;20606;-38
2021/07/12 06:30:35;;;;;;;2.17;1.12;;;27.70;30.80;;;;;;4311265;33;20145;-37
2021/07/12 06:33:03;;;;;;;0.32;0.30;;;27.70;30.80;;;;;;4311567;33;20639;-36
2021/07/12 06:35:30;;;;;;;1.33;0.45;;;27.90;30.70;;;;;;4299145;33;20065;-37
2021/07/12 06:37:56;;;;;;;1.45;0.70;;;27.90;30.10;;;;;;4299291;33;20059;-38
2021/07/12 06:40:23;;;;;;;4.12;0.75;;;27.90;30.00;;;;;;4299413;33;20065;-38
2021/07/12 06:42:49;;;;;;;1.90;0.57;;;28.00;30.00;;;;;;4310893;33;20531;-37
2021/07/12 06:45:16;;;;;;;1.62;0.93;;;28.10;30.00;;;;;;4310963;33;20103;-36
2021/07/12 06:47:42;;;;;;;1.90;1.15;;;28.30;29.80;;;;;;4311294;33;20082;-36
2021/07/12 06:50:09;;;;;;;2.25;0.62;;;28.30;29.30;;;;;;4316815;33;20055;-38
2021/07/12 06:52:36;;;;;;;1.58;0.60;;;28.20;29.20;;;;;;4317097;33;20177;-38
2021/07/12 06:55:02;;;;;;;2.10;1.00;;;28.30;29.50;;;;;;4329151;33;20522;-37
2021/07/12 06:57:29;;;;;;;1.98;0.80;;;28.20;29.50;;;;;;4346793;32;20540;-36
2021/07/12 06:59:56;;;;;;;1.62;0.95;;;28.30;29.70;;;;;;4357974;32;20066;-36
2021/07/12 07:02:23;;;;;;;1.58;0.80;;;28.30;29.50;;;;;;4357767;32;20055;-36
2021/07/12 07:04:49;;;;;;;4.97;0.70;;;28.30;28.80;;;;;;4357922;32;20460;-37
2021/07/12 07:07:16;;;;;;;6.57;1.20;;;28.40;29.10;;;;;;4357393;32;20552;-36
2021/07/12 07:09:42;;;;;;;3.20;0.80;;;28.60;29.70;;;;;;4358228;32;20478;-37
2021/07/12 07:12:09;;;;;;;5.25;1.00;;;28.60;29.60;;;;;;4360798;32;20067;-37
2021/07/12 07:14:35;;;;;;;3.95;1.67;;;28.50;29.50;;;;;;4360616;32;20463;-37
2021/07/12 07:17:02;;;;;;;3.33;1.00;;;28.40;29.70;;;;;;4360445;32;20067;-37
2021/07/12 07:19:29;;;;;;;2.70;0.90;;;28.40;29.70;;;;;;4346921;32;20463;-37
2021/07/12 07:21:55;;;;;;;1.70;0.98;;;28.50;29.70;;;;;;4313708;33;20075;-37
2021/07/12 07:24:22;;;;;;;3.17;0.88;;;28.60;29.70;;;;;;4314046;33;20645;-38
2021/07/12 07:26:48;;;;;;;1.02;0.60;;;28.70;29.60;;;;;;4313334;33;20071;-37
2021/07/12 07:29:15;;;;;;;4.57;0.90;;;28.70;29.50;;;;;;4313443;33;20100;-38
2021/07/12 07:31:43;;;;;;;3.35;1.05;;;28.70;29.30;;;;;;4313499;33;20068;-39
2021/07/12 07:34:09;;;;;;;2.08;1.23;;;28.60;29.40;;;;;;4301150;33;20148;-37
2021/07/12 07:36:38;;;;;;;4.03;1.83;;;28.50;29.60;;;;;;4313347;33;20106;-36
2021/07/12 07:39:05;;;;;;;2.03;1.10;;;28.50;29.40;;;;;;4298572;33;20079;-37
2021/07/12 07:41:33;;;;;;;3.50;1.45;;;28.40;29.40;;;;;;4286640;33;20596;-35
2021/07/12 07:44:00;;;;;;;4.32;1.20;;;28.40;29.20;;;;;;4299197;33;20155;-37
2021/07/12 07:46:26;;;;;;;4.65;1.48;;;28.30;29.00;;;;;;4286907;33;20079;-36
2021/07/12 07:48:53;;;;;;;1.90;0.68;;;28.40;29.30;;;;;;4298637;33;20618;-37
2021/07/12 07:51:19;;;;;;;0.88;0.50;;;28.40;29.50;;;;;;4299233;33;20512;-36
2021/07/12 07:53:46;;;;;;;2.03;0.93;;;28.50;29.60;;;;;;4298496;33;20072;-37
2021/07/12 07:56:12;;;;;;;4.85;1.45;;;28.70;29.40;;;;;;4298574;33;20106;-36
2021/07/12 07:58:38;;;;;;;0.85;0.50;;;28.80;29.40;;;;;;4301286;33;20457;-37
2021/07/12 08:01:05;;;;;;;2.05;0.98;;;29.00;29.60;;;;;;4300968;33;20079;-37
2021/07/12 08:03:31;;;;;;;2.30;0.90;;;29.20;29.40;;;;;;4288930;33;20090;-38
2021/07/12 08:05:58;;;;;;;1.87;0.80;;;29.30;29.30;;;;;;4300950;33;20147;-38
2021/07/12 08:08:24;;;;;;;0.77;0.55;;;29.30;29.30;;;;;;4301094;33;20083;-37
2021/07/12 08:10:51;;;;;;;2.60;1.12;;;29.40;29.20;;;;;;4338847;33;20059;-36
2021/07/12 08:13:17;;;;;;;1.60;1.10;;;29.40;28.90;;;;;;4344988;33;20085;-38
2021/07/12 08:15:44;;;;;;;1.75;1.15;;;29.30;29.00;;;;;;4345085;33;20058;-37
2021/07/12 08:18:10;;;;;;;2.58;1.20;;;29.30;29.20;;;;;;4330951;33;21131;-36
2021/07/12 08:20:37;;;;;;;9.00;0.90;;;29.20;29.30;;;;;;4344242;32;20459;-37
2021/07/12 08:23:03;;;;;;;1.70;0.90;;;29.20;29.20;;;;;;4344320;33;20437;-36
2021/07/12 08:25:29;;;;;;;2.22;0.80;;;29.20;29.20;;;;;;4344874;33;20070;-37
2021/07/12 08:27:56;;;;;;;2.95;0.80;;;29.20;29.10;;;;;;4344433;33;20077;-37
2021/07/12 08:30:22;;;;;;;1.02;0.70;;;29.20;29.20;;;;;;4330579;33;20527;-37
2021/07/12 08:32:49;;;;;;;1.73;0.60;;;29.20;29.10;;;;;;4344433;33;20058;-36
2021/07/12 08:35:16;;;;;;;2.05;0.75;;;29.30;28.70;;;;;;4344560;33;20159;-38
2021/07/12 08:37:49;;;;;;;1.10;0.70;;;29.40;28.80;;;;;;4344391;33;20074;-37
2021/07/12 08:40:16;;;;;;;2.50;0.85;;;29.40;28.60;;;;;;4344833;33;20513;-37
2021/07/12 08:42:42;;;;;;;2.25;0.93;;;29.30;28.70;;;;;;4331009;33;20056;-37
2021/07/12 08:45:09;;;;;;;3.22;0.98;;;29.30;28.60;;;;;;4330766;33;20089;-37
2021/07/12 08:47:37;;;;;;;1.55;0.88;;;29.30;28.60;;;;;;4344689;33;20074;-35
2021/07/12 08:50:04;;;;;;;1.92;1.05;;;29.40;28.70;;;;;;4330893;33;20078;-38
2021/07/12 08:52:31;;;;;;;2.37;0.50;;;29.50;28.50;;;;;;4344733;33;20151;-38
2021/07/12 08:54:57;;;;;;;3.10;0.90;;;29.60;28.50;;;;;;4344394;33;20086;-37
2021/07/12 08:57:24;;;;;;;1.33;0.50;;;29.70;28.20;;;;;;4330436;33;20066;-37
2021/07/12 08:59:50;;;;;;;1.12;0.73;;;29.80;28.20;;;;;;4344344;33;20071;-37
2021/07/12 09:02:20;;;;;;;1.23;0.80;;;29.90;28.10;;;;;;4306007;33;20483;-37
2021/07/12 09:04:49;;;;;;;6.07;0.85;;;30.00;28.10;;;;;;4330309;33;20534;-36
2021/07/12 09:07:21;;;;;;;1.12;0.57;;;29.80;28.10;;;;;;4343642;33;20062;-41
2021/07/12 09:10:01;;;;;;;1.25;0.43;;;29.90;28.30;;;;;;4343572;33;20211;-37
2021/07/12 09:12:48;;;;;;;0.77;0.30;;;30.10;28.20;;;;;;4343945;33;20500;-36
2021/07/12 09:15:19;;;;;;;5.62;0.50;;;30.10;27.90;;;;;;4344081;33;20090;-37
2021/07/12 09:17:48;;;;;;;0.77;0.47;;;30.20;28.00;;;;;;4344035;33;20082;-36
2021/07/12 09:20:29;;;;;;;0.98;0.73;;;30.40;28.40;;;;;;4343969;33;20534;-38
2021/07/12 09:22:56;;;;;;;0.73;0.45;;;30.40;27.90;;;;;;4330100;33;20063;-38
2021/07/12 09:25:23;;;;;;;4.18;0.77;;;30.70;27.70;;;;;;4343761;33;20066;-37
2021/07/12 09:27:55;;;;;;;1.67;0.73;;;30.80;27.50;;;;;;4330042;33;20083;-37
2021/07/12 09:30:21;;;;;;;3.70;1.40;;;30.60;27.50;;;;;;4343937;33;20146;-36
2021/07/12 09:32:48;;;;;;;0.88;0.62;;;30.40;27.60;;;;;;4343220;32;20594;-37
2021/07/12 09:35:17;;;;;;;0.68;0.32;;;30.30;27.80;;;;;;4329926;33;20149;-37
2021/07/12 09:37:54;;;;;;;4.18;0.80;;;30.30;27.80;;;;;;4343962;33;20591;-37
2021/07/12 09:40:21;;;;;;;1.80;0.95;;;30.40;27.70;;;;;;4343681;33;20144;-37
2021/07/12 09:42:50;;;;;;;2.03;0.65;;;30.30;27.60;;;;;;4305718;33;20087;-37
2021/07/12 09:45:24;;;;;;;0.30;0.30;;;30.40;27.80;;;;;;4343710;33;20066;-38
2021/07/12 09:47:51;;;;;;;1.37;0.55;;;30.50;27.70;;;;;;4330227;33;20074;-37
2021/07/12 09:50:20;;;;;;;1.25;0.80;;;30.50;27.80;;;;;;4329979;33;20076;-37
2021/07/12 09:52:49;;;;;;;2.22;0.80;;;30.50;27.60;;;;;;4329543;33;20129;-36
2021/07/12 09:55:34;;;;;;;1.30;0.65;;;30.60;27.70;;;;;;4343554;33;20063;-37
2021/07/12 09:58:19;;;;;;;3.05;1.00;;;30.60;27.70;;;;;;4343370;33;20097;-36
2021/07/12 10:00:48;;;;;;;1.17;0.52;;;30.60;27.50;;;;;;4342238;33;20153;-38
2021/07/12 10:03:21;;;;;;;0.50;0.40;;;30.60;27.60;;;;;;4343207;32;20151;-37
2021/07/12 10:05:49;;;;;;;4.90;0.75;;;30.60;27.50;;;;;;4343722;32;20054;-37
2021/07/12 10:08:15;;;;;;;2.87;0.77;;;30.80;27.60;;;;;;4358229;32;20478;-38
2021/07/12 10:10:42;;;;;;;0.50;0.30;;;31.00;27.60;;;;;;4358059;32;20072;-37
2021/07/12 10:13:08;;;;;;;2.42;0.40;;;31.00;27.20;;;;;;4358243;32;20078;-38
2021/07/12 10:15:35;;;;;;;3.17;0.80;;;31.20;27.40;;;;;;4358016;32;20059;-38
2021/07/12 10:18:02;;;;;;;1.23;0.62;;;31.10;27.10;;;;;;4357841;32;20051;-38
2021/07/12 10:20:33;;;;;;;2.05;0.73;;;31.10;27.10;;;;;;4357641;32;20069;-36
2021/07/12 10:23:00;;;;;;;2.70;0.77;;;31.00;27.20;;;;;;4321283;32;20059;-37
2021/07/12 10:25:28;;;;;;;4.40;0.77;;;30.90;27.30;;;;;;4344207;32;20539;-36
2021/07/12 10:28:06;;;;;;;1.45;0.65;;;30.80;27.40;;;;;;4344571;32;20063;-38
2021/07/12 10:30:49;;;;;;;2.05;0.68;;;30.80;27.50;;;;;;4357859;32;20069;-38
2021/07/12 10:33:18;;;;;;;0.88;0.50;;;30.90;27.40;;;;;;4345803;32;20086;-38
2021/07/12 10:35:54;;;;;;;1.00;0.55;;;31.00;27.10;;;;;;4357947;32;20589;-37
2021/07/12 10:38:38;;;;;;;4.05;0.68;;;31.00;27.10;;;;;;4344396;32;20039;-40
2021/07/12 10:41:22;;;;;;;1.17;0.57;;;30.90;27.20;;;;;;4357999;32;20062;-38
2021/07/12 10:43:52;;;;;;;2.35;0.90;;;31.10;27.10;;;;;;4357479;32;20131;-37
2021/07/12 10:46:28;;;;;;;2.67;0.95;;;31.10;26.90;;;;;;4357563;32;20105;-38
2021/07/12 10:48:57;;;;;;;5.47;0.57;;;31.10;26.90;;;;;;4358029;32;20062;-38
2021/07/12 10:51:30;;;;;;;5.22;0.70;;;31.20;27.00;;;;;;4343976;32;20086;-37
2021/07/12 10:54:11;;;;;;;0.30;0.28;;;31.30;27.00;;;;;;4357745;32;20058;-38
2021/07/12 10:56:56;;;;;;;0.65;0.43;;;31.30;27.00;;;;;;4357539;32;20065;-38
2021/07/12 10:59:33;;;;;;;0.77;0.50;;;31.30;27.00;;;;;;4343287;33;20091;-37
2021/07/12 11:02:01;;;;;;;0.90;0.60;;;31.30;26.80;;;;;;4342981;33;20155;-39
2021/07/12 11:04:47;;;;;;;2.15;0.40;;;31.30;26.90;;;;;;4342747;33;20067;-38
2021/07/12 11:07:16;;;;;;;0.73;0.40;;;31.60;26.90;;;;;;4342324;33;20066;-36
2021/07/12 11:09:54;;;;;;;1.33;0.40;;;31.70;26.50;;;;;;4343369;33;20126;-37
2021/07/12 11:12:38;;;;;;;3.42;0.50;;;31.80;26.60;;;;;;4342765;33;20089;-38
2021/07/12 11:15:08;;;;;;;;;;;31.70;26.40;;;;;;4343127;33;20071;-37
2021/07/12 11:18:02;;;;;;;1.33;0.50;;;31.60;26.40;;;;;;4342377;33;20403;-36
2021/07/12 11:20:51;;;;;;;0.85;0.62;;;31.40;26.30;;;;;;4342703;33;20062;-37
2021/07/12 11:23:56;;;;;;;0.95;0.52;;;31.20;26.50;;;;;;4329266;33;20171;-37
2021/07/12 11:26:30;;;;;;;0.60;0.37;;;31.20;26.70;;;;;;4342625;33;20067;-37
2021/07/12 11:29:02;;;;;;;0.33;0.27;;;31.40;26.50;;;;;;4342711;33;20138;-37
2021/07/12 11:31:49;;;;;;;3.78;0.50;;;31.40;26.50;;;;;;4342739;33;20089;-37
2021/07/12 11:34:37;;;;;;;1.50;0.70;;;31.50;26.60;;;;;;4328902;33;20062;-36
2021/07/12 11:37:09;;;;;;;1.40;0.50;;;31.50;26.70;;;;;;4342830;33;20070;-37
2021/07/12 11:39:44;;;;;;;0.80;0.50;;;31.50;26.50;;;;;;4342414;33;20105;-36
2021/07/12 11:42:22;;;;;;;1.48;0.62;;;31.50;26.40;;;;;;4329194;33;20094;-37
2021/07/12 11:45:04;;;;;;;3.33;0.43;;;31.60;26.40;;;;;;4342350;33;20562;-37
2021/07/12 11:47:39;;;;;;;0.90;0.40;;;31.70;26.40;;;;;;4328554;33;20494;-37
2021/07/12 11:50:11;;;;;;;0.68;0.43;;;31.80;26.40;;;;;;4329019;33;20180;-37
2021/07/12 11:52:44;;;;;;;1.35;0.50;;;31.60;26.50;;;;;;4342391;33;20059;-38
2021/07/12 11:55:25;;;;;;;1.98;0.52;;;31.80;26.70;;;;;;4342524;33;20074;-38
2021/07/12 11:57:56;;;;;;;0.82;0.37;;;31.80;26.70;;;;;;4312700;33;20060;-38
2021/07/12 12:00:27;;;;;;;4.78;0.52;;;31.70;26.70;;;;;;4313595;33;20667;-38
2021/07/12 12:03:02;;;;;;;1.55;0.80;;;31.80;26.70;;;;;;4313384;33;20071;-37
2021/07/12 12:05:31;;;;;;;1.35;0.88;;;31.90;26.60;;;;;;4301282;33;20099;-37
2021/07/12 12:07:58;;;;;;;1.15;0.73;;;31.90;26.60;;;;;;4300791;33;20162;-37
2021/07/12 12:10:30;;;;;;;0.35;0.30;;;31.90;26.70;;;;;;4312920;33;20074;-37
2021/07/12 12:13:01;;;;;;;3.55;0.55;;;31.90;27.00;;;;;;4312940;33;20086;-36
2021/07/12 12:15:30;;;;;;;1.08;0.30;;;31.80;26.90;;;;;;4313208;33;20468;-37
2021/07/12 12:18:12;;;;;;;4.57;0.50;;;32.00;27.10;;;;;;4298055;33;20174;-36
2021/07/12 12:20:51;;;;;;;1.25;0.77;;;32.00;27.10;;;;;;4297937;33;20627;-36
2021/07/12 12:23:25;;;;;;;1.33;0.75;;;32.00;27.00;;;;;;4298427;33;20079;-37
2021/07/12 12:26:12;;;;;;;0.77;0.30;;;32.00;27.20;;;;;;4298354;33;20079;-37
2021/07/12 12:28:48;;;;;;;3.20;0.43;;;32.00;27.20;;;;;;4310387;33;20563;-37
2021/07/12 12:31:29;;;;;;;2.47;0.40;;;31.90;27.30;;;;;;4327641;33;20091;-37
2021/07/12 12:34:05;;;;;;;0.73;0.50;;;31.90;27.10;;;;;;4327709;33;20074;-37
2021/07/12 12:36:37;;;;;;;1.42;0.60;;;31.80;27.30;;;;;;4315334;33;20066;-38
2021/07/12 12:39:17;;;;;;;0.82;0.62;;;31.80;27.30;;;;;;4327634;33;20071;-37
2021/07/12 12:41:54;;;;;;;1.48;0.55;;;31.70;27.10;;;;;;4327417;33;20140;-37
2021/07/12 12:44:22;;;;;;;3.33;0.50;;;31.60;27.40;;;;;;4327584;33;20063;-37
2021/07/12 12:46:53;;;;;;;2.97;0.60;;;31.70;27.80;;;;;;4327686;33;20159;-37
2021/07/12 12:49:21;;;;;;;1.85;0.50;;;31.70;27.30;;;;;;4325975;33;20058;-37
2021/07/12 12:51:58;;;;;;;0.75;0.40;;;31.70;27.20;;;;;;4344771;33;20067;-37
2021/07/12 12:54:35;;;;;;;0.57;0.40;;;31.70;27.00;;;;;;4344612;33;20067;-37
2021/07/12 12:57:04;;;;;;;0.60;0.30;;;31.70;27.10;;;;;;4344552;33;20069;-38
2021/07/12 12:59:38;;;;;;;1.12;0.55;;;31.80;27.20;;;;;;4331033;33;20101;-37
2021/07/12 13:02:10;;;;;;;0.62;0.30;;;31.70;27.10;;;;;;4344050;33;20078;-37
2021/07/12 13:04:40;;;;;;;0.45;0.30;;;31.80;27.30;;;;;;4344428;33;20055;-37
2021/07/12 13:07:06;;;;;;;0.15;0.10;;;31.80;27.20;;;;;;4343610;32;20075;-37